createdAt,value
2018-09-27T00:01:14.938Z,10.97
2018-09-27T00:06:20.548Z,8.50
2018-09-27T00:11:26.344Z,8.03
2018-09-27T00:16:30.853Z,10.37
2018-09-27T00:21:36.011Z,7.97
2018-09-27T00:26:40.472Z,8.07
2018-09-27T00:53:30.234Z,8.93
2018-09-27T00:58:35.686Z,7.70
2018-09-27T01:03:40.343Z,8.00
2018-09-27T01:08:44.902Z,7.90
2018-09-27T01:13:49.475Z,6.97
2018-09-27T01:18:53.936Z,14.37
2018-09-27T01:23:58.439Z,12.27
2018-09-27T01:29:02.914Z,10.93
2018-09-27T01:34:07.533Z,11.93
2018-09-27T01:39:12.003Z,9.03
2018-09-27T01:44:16.674Z,9.83
2018-09-27T01:49:22.023Z,11.83
2018-09-27T01:54:27.084Z,10.63
2018-09-27T01:59:31.601Z,11.60
2018-09-27T02:04:35.935Z,12.47
2018-09-27T02:09:40.473Z,9.60
2018-09-27T02:14:45.114Z,9.53
2018-09-27T02:19:49.629Z,8.53
2018-09-27T02:24:55.532Z,8.93
2018-09-27T02:29:59.922Z,10.13
2018-09-27T02:35:04.610Z,9.73
2018-09-27T02:40:09.750Z,8.87
2018-09-27T02:45:14.335Z,11.57
2018-09-27T02:50:19.719Z,8.87
2018-09-27T02:55:24.257Z,7.63
2018-09-27T03:00:28.764Z,9.63
2018-09-27T03:05:33.295Z,10.70
2018-09-27T03:10:37.839Z,8.73
2018-09-27T03:15:42.609Z,8.63
2018-09-27T03:20:47.125Z,10.23
2018-09-27T03:25:51.658Z,12.10
2018-09-27T03:30:55.992Z,10.17
2018-09-27T03:36:00.612Z,9.67
2018-09-27T03:41:05.008Z,11.73
2018-09-27T03:46:09.635Z,14.57
2018-09-27T03:51:14.208Z,11.17
2018-09-27T03:56:18.693Z,9.80
2018-09-27T04:01:23.151Z,12.77
2018-09-27T04:06:27.579Z,15.30
2018-09-27T04:11:32.429Z,13.20
2018-09-27T04:16:37.059Z,14.87
2018-09-27T04:21:41.605Z,13.50
2018-09-27T04:26:45.983Z,11.70
2018-09-27T04:31:50.319Z,12.50
2018-09-27T04:36:54.595Z,11.70
2018-09-27T04:41:59.056Z,12.67
2018-09-27T04:47:04.184Z,14.03
2018-09-27T04:52:09.639Z,12.33
2018-09-27T04:57:14.897Z,13.33
2018-09-27T05:02:19.080Z,15.83
2018-09-27T05:07:23.937Z,12.27
2018-09-27T05:12:28.668Z,14.87
2018-09-27T05:17:33.639Z,13.13
2018-09-27T05:22:38.162Z,33.97
2018-09-27T05:27:42.681Z,17.13
2018-09-27T05:32:47.421Z,12.23
2018-09-27T05:37:51.786Z,13.40
2018-09-27T05:42:56.771Z,15.33
2018-09-27T05:48:01.303Z,12.83
2018-09-27T05:53:05.842Z,12.60
2018-09-27T05:58:10.344Z,14.77
2018-09-27T06:03:14.944Z,14.57
2018-09-27T06:08:19.534Z,12.57
2018-09-27T06:13:24.068Z,10.87
2018-09-27T06:18:28.719Z,11.13
2018-09-27T06:23:33.099Z,11.77
2018-09-27T06:28:37.609Z,12.30
2018-09-27T06:33:42.292Z,13.98
2018-09-27T06:38:47.286Z,13.72
2018-09-27T06:43:52.055Z,13.18
2018-09-27T06:48:57.125Z,14.18
2018-09-27T06:54:01.572Z,18.17
2018-09-27T06:59:05.763Z,12.60
2018-09-27T07:04:10.196Z,12.70
2018-09-27T07:09:15.449Z,16.45
2018-09-27T07:14:19.694Z,17.65
2018-09-27T07:19:24.221Z,17.73
2018-09-27T07:24:28.536Z,16.95
2018-09-27T07:29:32.985Z,17.23
2018-09-27T07:34:37.879Z,16.27
2018-09-27T07:39:42.558Z,20.43
2018-09-27T07:44:47.172Z,17.23
2018-09-27T07:49:51.951Z,16.70
2018-09-27T07:54:56.611Z,31.90
2018-09-27T08:00:01.152Z,22.17
2018-09-27T08:05:05.761Z,23.18
2018-09-27T08:10:10.146Z,25.43
2018-09-27T08:15:14.908Z,26.70
2018-09-27T08:20:19.428Z,41.05
2018-09-27T08:25:23.846Z,25.45
2018-09-27T08:30:28.569Z,25.43
2018-09-27T08:35:33.556Z,27.75
2018-09-27T08:40:38.067Z,22.62
2018-09-27T08:45:42.690Z,25.48
2018-09-27T08:50:48.384Z,25.62
2018-09-27T08:55:52.951Z,24.02
2018-09-27T09:00:58.112Z,22.02
2018-09-27T09:06:03.185Z,23.05
2018-09-27T09:11:07.871Z,25.97
2018-09-27T09:16:12.446Z,24.85
2018-09-27T09:21:16.912Z,20.08
2018-09-27T09:26:21.524Z,22.85
2018-09-27T09:31:26.900Z,23.92
2018-09-27T09:36:31.494Z,14.15
2018-09-27T09:41:35.987Z,30.23
2018-09-27T09:46:40.658Z,26.27
2018-09-27T09:51:45.212Z,22.25
2018-09-27T09:56:49.924Z,25.65
2018-09-27T10:01:54.314Z,27.15
2018-09-27T10:06:59.720Z,29.82
2018-09-27T10:12:04.359Z,19.98
2018-09-27T10:17:09.075Z,25.95
2018-09-27T10:22:14.026Z,26.02
2018-09-27T10:27:18.326Z,25.60
2018-09-27T10:32:23.169Z,27.30
2018-09-27T10:37:28.317Z,20.72
2018-09-27T10:42:33.048Z,22.48
2018-09-27T10:47:38.366Z,22.37
2018-09-27T10:52:43.653Z,21.68
2018-09-27T10:57:48.221Z,18.92
2018-09-27T11:02:53.348Z,17.60
2018-09-27T11:07:57.886Z,18.65
2018-09-27T11:13:02.985Z,20.45
2018-09-27T11:18:07.725Z,16.23
2018-09-27T11:23:12.261Z,17.77
2018-09-27T11:28:16.639Z,20.92
2018-09-27T11:33:21.933Z,20.57
2018-09-27T11:38:26.463Z,22.30
2018-09-27T11:43:30.863Z,18.00
2018-09-27T11:48:35.425Z,18.80
2018-09-27T11:53:40.099Z,14.23
2018-09-27T11:58:45.539Z,17.25
2018-09-27T12:03:49.953Z,19.67
2018-09-27T12:08:54.976Z,15.00
2018-09-27T12:13:59.769Z,17.50
2018-09-27T12:19:04.840Z,15.68
2018-09-27T12:24:09.664Z,19.15
2018-09-27T12:29:15.757Z,15.00
2018-09-27T12:34:20.313Z,17.35
2018-09-27T12:39:24.736Z,15.28
2018-09-27T12:44:29.336Z,15.15
2018-09-27T12:49:34.336Z,15.70
2018-09-27T12:54:39.239Z,14.53
2018-09-27T12:59:44.278Z,11.15
2018-09-27T13:04:48.746Z,10.68
2018-09-27T13:09:53.301Z,10.35
2018-09-27T13:14:58.134Z,8.65
2018-09-27T13:20:03.115Z,8.33
2018-09-27T13:25:08.095Z,7.35
2018-09-27T13:30:12.798Z,7.40
2018-09-27T13:35:17.454Z,7.92
2018-09-27T13:40:22.488Z,7.37
2018-09-27T13:45:27.043Z,8.63
2018-09-27T13:50:32.380Z,7.28
2018-09-27T13:55:36.830Z,9.93
2018-09-27T14:00:42.225Z,10.95
2018-09-27T14:05:47.316Z,8.00
2018-09-27T14:10:51.881Z,6.08
2018-09-27T14:15:56.877Z,7.95
2018-09-27T14:21:02.954Z,12.18
2018-09-27T14:26:07.860Z,8.58
2018-09-27T14:31:12.781Z,8.55
2018-09-27T14:36:18.545Z,9.63
2018-09-27T14:41:23.138Z,10.38
2018-09-27T14:46:27.677Z,10.23
2018-09-27T14:51:32.373Z,10.82
2018-09-27T14:56:38.358Z,12.75
2018-09-27T15:01:44.231Z,10.75
2018-09-27T15:06:49.155Z,11.00
2018-09-27T15:11:53.950Z,11.65
2018-09-27T15:16:58.773Z,5.78
2018-09-27T15:22:06.987Z,5.50
2018-09-27T15:27:11.767Z,5.15
2018-09-27T15:32:16.871Z,4.35
2018-09-27T15:37:21.521Z,4.75
2018-09-27T15:42:26.395Z,3.47
2018-09-27T15:47:31.519Z,2.25
2018-09-27T15:52:36.200Z,3.45
2018-09-27T15:57:40.911Z,3.10
2018-09-27T16:02:46.683Z,4.75
2018-09-27T16:07:51.951Z,2.58
2018-09-27T16:12:57.686Z,4.40
2018-09-27T16:18:03.416Z,5.83
2018-09-27T16:23:08.079Z,2.75
2018-09-27T16:28:12.400Z,2.80
2018-09-27T16:33:16.978Z,3.22
2018-09-27T16:38:21.435Z,3.95
2018-09-27T16:43:26.253Z,8.05
2018-09-27T16:48:30.957Z,5.80
2018-09-27T16:53:35.573Z,4.12
2018-09-27T16:58:40.118Z,2.52
2018-09-27T17:03:45.276Z,4.60
2018-09-27T17:08:49.837Z,4.17
2018-09-27T17:13:54.358Z,4.30
2018-09-27T17:19:01.628Z,5.10
2018-09-27T17:24:06.235Z,4.25
2018-09-27T17:29:10.904Z,2.95
2018-09-27T17:34:15.471Z,4.72
2018-09-27T17:39:20.559Z,7.17
2018-09-27T17:44:25.896Z,3.55
2018-09-27T17:49:31.097Z,4.30
2018-09-27T17:54:35.814Z,3.85
2018-09-27T17:59:40.208Z,4.05
2018-09-27T18:04:44.670Z,6.03
2018-09-27T18:09:49.328Z,3.60
2018-09-27T18:14:53.806Z,4.10
2018-09-27T18:19:58.842Z,4.33
2018-09-27T18:25:03.575Z,4.10
2018-09-27T18:30:08.130Z,2.95
2018-09-27T18:35:13.173Z,3.58
2018-09-27T18:40:17.517Z,4.03
2018-09-27T18:45:22.033Z,5.53
2018-09-27T18:50:26.555Z,3.52
2018-09-27T18:55:31.081Z,4.05
2018-09-27T19:00:37.461Z,3.50
2018-09-27T19:05:42.095Z,6.20
2018-09-27T19:10:46.735Z,6.03
2018-09-27T19:15:51.594Z,4.17
2018-09-27T19:20:56.302Z,6.28
2018-09-27T19:26:00.755Z,8.20
2018-09-27T19:31:05.914Z,6.25
2018-09-27T19:36:10.606Z,6.40
2018-09-27T19:41:15.145Z,7.97
2018-09-27T19:46:20.069Z,6.95
2018-09-27T19:51:24.607Z,9.33
2018-09-27T19:56:29.362Z,8.35
2018-09-27T20:01:34.238Z,8.78
2018-09-27T20:06:39.815Z,9.03
2018-09-27T20:11:44.966Z,8.25
2018-09-27T20:16:49.734Z,13.88
2018-09-27T20:21:54.349Z,8.48
2018-09-27T20:26:58.974Z,9.05
2018-09-27T20:32:04.104Z,7.75
2018-09-27T20:37:09.053Z,9.15
2018-09-27T20:42:13.675Z,5.12
2018-09-27T20:47:18.252Z,7.15
2018-09-27T20:52:22.989Z,5.12
2018-09-27T20:57:27.813Z,8.88
2018-09-27T21:02:32.322Z,7.25
2018-09-27T21:07:36.981Z,6.60
2018-09-27T21:12:41.524Z,7.22
2018-09-27T21:17:46.151Z,8.48
2018-09-27T21:22:50.555Z,6.15
2018-09-27T21:27:55.228Z,6.60
2018-09-27T21:32:59.618Z,5.67
2018-09-27T21:38:04.147Z,8.03
2018-09-27T21:43:08.685Z,7.65
2018-09-27T21:48:13.659Z,8.90
2018-09-27T21:53:22.682Z,5.72
2018-09-27T21:58:32.726Z,9.78
2018-09-27T22:03:53.487Z,6.95
2018-09-27T22:08:59.113Z,6.10
2018-09-27T22:14:11.552Z,6.80
2018-09-27T22:19:31.068Z,7.45
2018-09-27T22:24:50.608Z,5.40
2018-09-27T22:30:01.639Z,8.18
2018-09-27T22:35:18.480Z,7.58
2018-09-27T22:40:33.942Z,6.92
2018-09-27T22:45:54.180Z,7.50
2018-09-27T22:51:04.596Z,7.17
2018-09-27T22:56:15.252Z,9.35
2018-09-27T23:01:32.567Z,6.60
2018-09-27T23:06:52.783Z,7.65
2018-09-27T23:12:03.843Z,9.68
2018-09-27T23:17:08.479Z,11.65
2018-09-27T23:22:12.939Z,8.53
2018-09-27T23:27:17.488Z,6.97
2018-09-27T23:32:22.094Z,10.25
2018-09-27T23:37:26.485Z,8.38
2018-09-27T23:42:31.296Z,7.47
2018-09-27T23:47:36.622Z,7.62
2018-09-27T23:52:41.291Z,8.65
2018-09-27T23:57:46.601Z,8.85
